Commerce, Georgia
Current Conditions -  °F | °C
As of 3:55 AM on Sunday 23 Nov 2014 (Local Time) from K19A Reporting Station
Moderate Rain Moderate Rain  
Wind Chill: 43°   Ceiling: 1400
Heat Index: 43°   Visibility: 7mi
Dew Point: 41°   Wind: 3mph
Humidity: 93%   Direction: 60°ENE
Pressure: 30.17"   Gusts: NA
Location:  34.21°N, 83.46°W
Report Text: K19A 230855Z AUTO 06003KT 7SM RA OVC014 06/05 A3017 RMK AO2
Loading
Personal Weather Stations






























Interactive Weather Map New forecast layout! Learn more

10-Day Weather Forecast

Advertisements
Track Severe Weather on mobile